Terminal Aerodrome Forecast
Issued by NWS

Home | Current Version | Previous Version | Text Only | Print | Product List | Glossary On
Versions: 1 2 3 4 5 6 7 8 9 10 11 12
000
FTUS43 KFGF 161134
TAFDVL
TAF
KDVL 161134Z 1612/1712 23006KT P6SM SKC
     FM161700 29006KT P6SM FEW250
     FM170500 28005KT 5SM BR SCT200=

USA.gov is the U.S. government's official web portal to all federal, state and local government web resources and services.